Time;durP1;ratioP1;P1;durP2;ratioP2;P2;SDS_P1;SDS_P2;PMS_P1;PMS_P2;Temp;Humidity;BMP_temperature;BMP_pressure;BME280_temperature;BME280_humidity;BME280_pressure;Samples;Min_cycle;Max_cycle;Signal;HPM_P1;HPM_P2
2022/03/21 00:02:21;;;;;;;;;;;21.20;22.80;;;;;;5147459;27;19923;-58
2022/03/21 00:04:48;;;;;;;;;;;21.20;23.00;;;;;;5142694;27;19948;-49
2022/03/21 00:07:14;;;;;;;;;;;20.90;23.30;;;;;;5144501;27;19945;-58
2022/03/21 00:09:39;;;;;;;;;;;21.10;23.20;;;;;;5149939;27;20293;-53
2022/03/21 00:12:05;;;;;;;;;;;21.10;23.10;;;;;;5144678;27;19927;-59
2022/03/21 00:14:31;;;;;;;;;;;21.20;23.00;;;;;;5145221;27;19927;-60
2022/03/21 00:16:58;;;;;;;;;;;20.90;23.30;;;;;;5149956;27;20374;-53
2022/03/21 00:19:24;;;;;;;;;;;21.20;23.00;;;;;;5144451;27;19978;-59
2022/03/21 00:21:49;;;;;;;;;;;21.00;23.30;;;;;;5123045;27;20382;-57
2022/03/21 00:24:15;;;;;;;;;;;21.20;23.00;;;;;;5148108;27;20281;-58
2022/03/21 00:26:41;;;;;;;;;;;21.10;23.20;;;;;;5144185;27;19927;-57
2022/03/21 00:29:08;;;;;;;;;;;21.20;23.10;;;;;;5149630;27;19923;-59
2022/03/21 00:31:36;;;;;;;;;;;20.90;23.30;;;;;;5144199;27;20518;-55
2022/03/21 00:34:02;;;;;;;;;;;21.20;23.00;;;;;;5144007;27;19942;-58
2022/03/21 00:36:28;;;;;;;;;;;21.20;23.10;;;;;;5131102;27;19926;-56
2022/03/21 00:38:54;;;;;;;;;;;21.20;23.10;;;;;;5143332;27;20454;-59
2022/03/21 00:41:21;;;;;;;;;;;21.10;23.30;;;;;;5139896;27;19970;-58
2022/03/21 00:43:47;;;;;;;;;;;21.20;23.20;;;;;;5149432;27;20058;-58
2022/03/21 00:46:13;;;;;;;;;;;21.10;23.30;;;;;;5143992;27;20365;-58
2022/03/21 00:48:39;;;;;;;;;;;21.00;23.30;;;;;;5149514;27;19930;-54
2022/03/21 00:51:05;;;;;;;;;;;21.20;23.10;;;;;;5125564;27;19938;-58
2022/03/21 00:53:30;;;;;;;;;;;21.00;23.40;;;;;;5143557;27;20275;-57
2022/03/21 00:55:56;;;;;;;;;;;21.20;23.10;;;;;;5149164;27;19927;-57
2022/03/21 00:58:22;;;;;;;;;;;21.10;23.30;;;;;;5140367;27;19927;-58
2022/03/21 01:00:48;;;;;;;;;;;21.20;23.20;;;;;;5142296;27;19935;-60
2022/03/21 01:03:13;;;;;;;;;;;21.10;23.30;;;;;;5148063;27;20013;-57
2022/03/21 01:05:39;;;;;;;;;;;21.10;23.20;;;;;;5143514;27;19923;-55
2022/03/21 01:08:05;;;;;;;;;;;21.20;23.20;;;;;;5149053;27;19927;-60
2022/03/21 01:10:31;;;;;;;;;;;21.20;23.20;;;;;;5143677;27;19971;-58
2022/03/21 01:12:57;;;;;;;;;;;21.10;23.30;;;;;;5143379;27;20385;-59
2022/03/21 01:15:23;;;;;;;;;;;21.20;23.30;;;;;;5148208;27;19927;-49
2022/03/21 01:17:49;;;;;;;;;;;21.00;23.40;;;;;;5138692;27;19941;-59
2022/03/21 01:20:17;;;;;;;;;;;21.20;23.20;;;;;;5143840;27;19927;-53
2022/03/21 01:22:43;;;;;;;;;;;21.10;23.20;;;;;;5148672;27;19927;-59
2022/03/21 01:25:10;;;;;;;;;;;21.20;23.10;;;;;;5143344;27;19986;-57
2022/03/21 01:27:36;;;;;;;;;;;21.00;23.10;;;;;;5146185;27;19926;-59
2022/03/21 01:30:05;;;;;;;;;;;21.10;23.00;;;;;;5146290;27;19929;-51
2022/03/21 01:32:34;;;;;;;;;;;21.30;22.80;;;;;;5143039;27;19931;-60
2022/03/21 01:35:00;;;;;;;;;;;21.20;22.80;;;;;;5145739;27;19927;-53
2022/03/21 01:37:25;;;;;;;;;;;21.10;22.70;;;;;;5141300;27;20423;-59
2022/03/21 01:39:51;;;;;;;;;;;21.10;22.80;;;;;;5143272;27;19927;-59
2022/03/21 01:42:17;;;;;;;;;;;21.10;22.70;;;;;;5148388;27;20010;-51
2022/03/21 01:44:43;;;;;;;;;;;21.20;22.60;;;;;;5142896;27;19923;-58
2022/03/21 01:47:09;;;;;;;;;;;21.10;22.60;;;;;;5142874;27;19928;-56
2022/03/21 01:49:35;;;;;;;;;;;21.20;22.50;;;;;;5148175;27;20275;-59
2022/03/21 01:52:01;;;;;;;;;;;21.20;22.50;;;;;;5123968;27;19931;-58
2022/03/21 01:57:11;;;;;;;;;;;21.00;22.70;;;;;;5147029;27;19924;-58
2022/03/21 01:59:37;;;;;;;;;;;21.10;22.60;;;;;;5142653;27;20354;-60
2022/03/21 02:02:03;;;;;;;;;;;21.00;22.70;;;;;;5147881;27;20026;-52
2022/03/21 02:04:29;;;;;;;;;;;21.10;22.60;;;;;;5142661;27;19923;-58
2022/03/21 02:06:55;;;;;;;;;;;21.10;22.70;;;;;;5123848;27;19935;-56
2022/03/21 02:09:20;;;;;;;;;;;21.20;22.60;;;;;;5147754;27;19937;-58
2022/03/21 02:11:46;;;;;;;;;;;20.90;22.90;;;;;;5139889;27;19978;-55
2022/03/21 02:14:12;;;;;;;;;;;21.20;22.60;;;;;;5139615;27;20370;-59
2022/03/21 02:16:38;;;;;;;;;;;21.10;22.80;;;;;;5147658;27;19990;-53
2022/03/21 02:19:08;;;;;;;;;;;21.30;22.70;;;;;;5142573;27;20402;-58
2022/03/21 02:21:41;;;;;;;;;;;21.20;22.90;;;;;;5147836;27;19923;-58
2022/03/21 02:24:11;;;;;;;;;;;21.20;22.90;;;;;;5142398;27;19979;-58
2022/03/21 02:26:36;;;;;;;;;;;21.10;22.90;;;;;;5142984;27;20304;-52
2022/03/21 02:29:03;;;;;;;;;;;21.00;23.00;;;;;;5147425;27;19938;-58
2022/03/21 02:31:28;;;;;;;;;;;21.10;23.00;;;;;;5137797;27;19923;-53
2022/03/21 02:33:54;;;;;;;;;;;21.20;22.90;;;;;;5142236;27;19923;-56
2022/03/21 02:36:20;;;;;;;;;;;21.10;23.00;;;;;;5129312;27;19923;-55
2022/03/21 02:38:46;;;;;;;;;;;21.20;22.90;;;;;;5142371;27;19927;-59
2022/03/21 02:41:12;;;;;;;;;;;21.20;22.90;;;;;;5144074;27;19976;-57
2022/03/21 02:43:53;;;;;;;;;;;21.10;23.00;;;;;;5146343;27;19932;-61
2022/03/21 02:46:19;;;;;;;;;;;21.10;23.00;;;;;;5142435;27;19927;-58
2022/03/21 02:48:46;;;;;;;;;;;21.10;23.00;;;;;;5144409;27;19929;-58
2022/03/21 02:51:11;;;;;;;;;;;21.20;23.00;;;;;;5140350;27;19923;-58
2022/03/21 02:53:38;;;;;;;;;;;20.90;23.30;;;;;;5142059;27;20063;-52
2022/03/21 02:56:04;;;;;;;;;;;21.30;23.00;;;;;;5147597;27;20366;-58
2022/03/21 02:58:29;;;;;;;;;;;21.00;23.30;;;;;;5142004;27;19927;-53
2022/03/21 03:01:08;;;;;;;;;;;21.20;23.10;;;;;;5141996;27;20231;-59
2022/03/21 03:03:33;;;;;;;;;;;21.10;23.20;;;;;;5147592;27;19930;-57
2022/03/21 03:05:59;;;;;;;;;;;21.00;23.30;;;;;;5141336;27;20287;-59
2022/03/21 03:08:25;;;;;;;;;;;21.00;23.20;;;;;;5137082;27;19927;-55
2022/03/21 03:10:50;;;;;;;;;;;21.20;23.00;;;;;;5147316;27;19923;-60
2022/03/21 03:13:16;;;;;;;;;;;21.10;23.10;;;;;;5141651;27;19952;-59
2022/03/21 03:15:42;;;;;;;;;;;21.10;23.20;;;;;;5147167;27;19934;-51
2022/03/21 03:18:08;;;;;;;;;;;21.30;23.00;;;;;;5141900;27;19924;-59
2022/03/21 03:20:34;;;;;;;;;;;21.00;23.20;;;;;;5141845;27;19948;-59
2022/03/21 03:23:00;;;;;;;;;;;21.20;23.00;;;;;;5147119;27;20416;-59
2022/03/21 03:25:26;;;;;;;;;;;21.00;23.10;;;;;;5139355;27;20373;-58
2022/03/21 03:27:52;;;;;;;;;;;21.10;23.10;;;;;;5123779;27;20641;-59
2022/03/21 03:30:18;;;;;;;;;;;21.20;22.90;;;;;;5150925;27;19927;-59
2022/03/21 03:32:45;;;;;;;;;;;20.90;23.10;;;;;;5145331;27;19927;-60
2022/03/21 03:35:11;;;;;;;;;;;21.10;22.90;;;;;;5150916;27;20047;-59
2022/03/21 03:37:36;;;;;;;;;;;21.10;23.00;;;;;;5145399;27;19931;-59
2022/03/21 03:40:02;;;;;;;;;;;21.20;22.90;;;;;;5145286;27;20367;-59
2022/03/21 03:42:28;;;;;;;;;;;21.10;23.10;;;;;;5150620;27;19927;-58
2022/03/21 03:44:54;;;;;;;;;;;21.20;23.00;;;;;;5140757;27;19930;-59
2022/03/21 03:47:20;;;;;;;;;;;21.10;23.10;;;;;;5144813;27;20200;-60
2022/03/21 03:49:46;;;;;;;;;;;21.20;23.00;;;;;;5132166;27;19974;-57
2022/03/21 03:52:11;;;;;;;;;;;21.20;23.00;;;;;;5145039;27;20328;-60
2022/03/21 03:54:37;;;;;;;;;;;21.20;23.10;;;;;;5150099;27;19927;-55
2022/03/21 03:57:03;;;;;;;;;;;21.10;23.10;;;;;;5145530;27;20813;-60
2022/03/21 03:59:29;;;;;;;;;;;21.10;23.10;;;;;;5144832;27;19966;-58
2022/03/21 04:01:55;;;;;;;;;;;21.20;23.00;;;;;;5149365;27;20435;-58
2022/03/21 04:04:21;;;;;;;;;;;21.20;23.00;;;;;;5141221;27;19922;-60
2022/03/21 04:06:47;;;;;;;;;;;21.00;23.10;;;;;;5126032;27;20382;-59
2022/03/21 04:09:12;;;;;;;;;;;21.20;23.00;;;;;;5149781;27;19934;-58
2022/03/21 04:11:38;;;;;;;;;;;21.00;23.10;;;;;;5144484;27;20396;-59
2022/03/21 04:14:04;;;;;;;;;;;21.20;23.00;;;;;;5147564;27;19930;-58
2022/03/21 04:16:30;;;;;;;;;;;21.10;23.10;;;;;;5147561;27;20428;-58
2022/03/21 04:18:56;;;;;;;;;;;21.20;23.00;;;;;;5144524;27;19923;-59
2022/03/21 04:21:22;;;;;;;;;;;21.00;23.10;;;;;;5146411;27;20401;-58
2022/03/21 04:23:47;;;;;;;;;;;21.20;22.80;;;;;;5142953;27;19923;-57
2022/03/21 04:26:13;;;;;;;;;;;21.00;22.80;;;;;;5144631;27;19927;-60
2022/03/21 04:28:39;;;;;;;;;;;21.10;22.80;;;;;;5149783;27;20190;-58
2022/03/21 04:31:05;;;;;;;;;;;21.10;22.70;;;;;;5144109;27;19927;-59
2022/03/21 04:33:30;;;;;;;;;;;21.20;22.70;;;;;;5145265;27;19927;-60
2022/03/21 04:35:56;;;;;;;;;;;21.00;22.80;;;;;;5148882;27;20363;-60
2022/03/21 04:38:22;;;;;;;;;;;21.10;22.80;;;;;;5143358;27;20851;-58
2022/03/21 04:40:49;;;;;;;;;;;21.00;22.90;;;;;;5144749;27;19923;-58
2022/03/21 04:43:16;;;;;;;;;;;21.20;22.80;;;;;;5125294;27;20365;-54
2022/03/21 04:45:42;;;;;;;;;;;21.20;22.80;;;;;;5143931;27;20049;-61
2022/03/21 04:48:08;;;;;;;;;;;21.10;23.00;;;;;;5149408;27;19930;-59
2022/03/21 04:50:34;;;;;;;;;;;21.20;22.90;;;;;;5143817;27;20353;-58
2022/03/21 04:53:00;;;;;;;;;;;21.10;23.00;;;;;;5143934;27;19934;-58
2022/03/21 04:55:26;;;;;;;;;;;21.20;22.90;;;;;;5149333;27;19927;-58
2022/03/21 04:57:52;;;;;;;;;;;21.00;23.10;;;;;;5123289;27;19923;-60
2022/03/21 05:00:17;;;;;;;;;;;21.20;22.90;;;;;;5146158;27;19969;-59
2022/03/21 05:02:43;;;;;;;;;;;21.10;23.10;;;;;;5125019;27;19931;-60
2022/03/21 05:05:09;;;;;;;;;;;21.20;23.00;;;;;;5143865;27;20009;-52
2022/03/21 05:07:41;;;;;;;;;;;21.10;23.10;;;;;;5149122;27;19927;-59
2022/03/21 05:10:08;;;;;;;;;;;21.10;23.10;;;;;;5125036;27;19975;-59
2022/03/21 05:12:34;;;;;;;;;;;21.10;23.00;;;;;;5143385;27;20346;-58
2022/03/21 05:15:00;;;;;;;;;;;21.20;22.90;;;;;;5148893;27;20003;-58
2022/03/21 05:17:29;;;;;;;;;;;21.00;23.10;;;;;;5139018;27;20805;-60
2022/03/21 05:19:54;;;;;;;;;;;21.20;23.00;;;;;;5145338;27;19926;-58
2022/03/21 05:22:20;;;;;;;;;;;21.00;23.10;;;;;;5146659;27;19931;-60
2022/03/21 05:36:00;;;;;;;;;;;21.20;22.90;;;;;;5138451;27;20010;-60
2022/03/21 05:38:27;;;;;;;;;;;21.10;22.90;;;;;;5148193;27;19973;-59
2022/03/21 05:40:56;;;;;;;;;;;21.30;22.70;;;;;;5124455;27;19927;-59
2022/03/21 05:43:22;;;;;;;;;;;21.10;22.80;;;;;;5143019;27;20041;-52
2022/03/21 05:45:49;;;;;;;;;;;21.10;22.80;;;;;;5148487;27;19930;-61
2022/03/21 05:51:02;;;;;;;;;;;21.20;22.60;;;;;;5142301;27;19933;-56
2022/03/21 05:53:29;;;;;;;;;;;21.10;22.80;;;;;;5145303;27;19923;-57
2022/03/21 05:55:56;;;;;;;;;;;21.20;22.60;;;;;;5140147;27;19923;-61
2022/03/21 05:58:22;;;;;;;;;;;21.10;22.70;;;;;;5148371;27;19931;-57
2022/03/21 06:00:48;;;;;;;;;;;21.20;22.50;;;;;;5142475;27;19923;-60
2022/03/21 06:03:13;;;;;;;;;;;21.20;22.40;;;;;;5142428;27;19962;-60
2022/03/21 06:05:40;;;;;;;;;;;21.10;22.50;;;;;;5148030;27;19934;-59
2022/03/21 06:08:06;;;;;;;;;;;21.20;22.40;;;;;;5142440;27;19927;-54
2022/03/21 06:10:32;;;;;;;;;;;21.10;22.40;;;;;;5142398;27;20238;-57
2022/03/21 06:12:58;;;;;;;;;;;21.10;22.30;;;;;;5143167;27;20234;-54
2022/03/21 06:15:23;;;;;;;;;;;21.20;22.20;;;;;;5141821;27;19927;-60
2022/03/21 06:17:49;;;;;;;;;;;21.00;22.40;;;;;;5147931;27;19930;-58
2022/03/21 06:20:15;;;;;;;;;;;21.20;22.10;;;;;;5142522;27;19972;-60
2022/03/21 06:22:41;;;;;;;;;;;21.20;22.10;;;;;;5142415;27;20293;-54
2022/03/21 06:25:07;;;;;;;;;;;21.20;22.00;;;;;;5147634;27;19927;-60
2022/03/21 06:27:33;;;;;;;;;;;21.00;22.10;;;;;;5142243;27;20427;-52
2022/03/21 06:29:59;;;;;;;;;;;21.20;21.90;;;;;;5141108;27;19923;-58
2022/03/21 06:32:25;;;;;;;;;;;21.00;22.00;;;;;;5143832;27;19939;-55
2022/03/21 06:34:52;;;;;;;;;;;21.20;21.80;;;;;;5142280;27;20442;-60
2022/03/21 06:37:18;;;;;;;;;;;21.10;22.00;;;;;;5145986;27;19946;-56
2022/03/21 06:39:44;;;;;;;;;;;21.10;21.90;;;;;;5144496;27;19971;-56
2022/03/21 06:42:11;;;;;;;;;;;21.20;21.90;;;;;;5142126;27;19924;-53
2022/03/21 06:44:37;;;;;;;;;;;21.30;21.60;;;;;;5147499;27;20014;-60
2022/03/21 06:47:03;;;;;;;;;;;21.00;21.50;;;;;;5142284;27;19930;-58
2022/03/21 06:49:30;;;;;;;;;;;21.10;21.30;;;;;;5120161;27;19927;-56
2022/03/21 06:51:56;;;;;;;;;;;20.90;21.30;;;;;;5146142;27;19927;-59
2022/03/21 06:54:22;;;;;;;;;;;21.20;21.00;;;;;;5142895;27;19931;-58
2022/03/21 06:56:48;;;;;;;;;;;21.00;21.20;;;;;;5142207;27;19929;-56
2022/03/21 06:59:13;;;;;;;;;;;21.20;21.00;;;;;;5147675;27;19927;-59
2022/03/21 07:01:39;;;;;;;;;;;20.90;21.30;;;;;;5143541;27;20358;-60
2022/03/21 07:04:05;;;;;;;;;;;21.20;21.20;;;;;;5151564;27;19931;-58
2022/03/21 07:06:31;;;;;;;;;;;21.20;21.10;;;;;;5145444;27;20046;-59
2022/03/21 07:08:57;;;;;;;;;;;21.10;21.20;;;;;;5141169;27;19923;-57
2022/03/21 07:11:23;;;;;;;;;;;21.10;21.20;;;;;;5150979;27;19983;-60
2022/03/21 07:13:49;;;;;;;;;;;21.30;21.10;;;;;;5145944;27;19975;-59
2022/03/21 07:16:16;;;;;;;;;;;21.00;21.30;;;;;;5145728;27;19929;-55
2022/03/21 07:18:42;;;;;;;;;;;21.20;21.20;;;;;;5151134;27;20305;-60
2022/03/21 07:21:08;;;;;;;;;;;21.00;21.40;;;;;;5145530;27;19937;-60
2022/03/21 07:23:34;;;;;;;;;;;21.30;21.30;;;;;;5151268;27;19962;-59
2022/03/21 07:26:00;;;;;;;;;;;20.90;21.50;;;;;;5143033;27;19923;-58
2022/03/21 07:28:26;;;;;;;;;;;21.00;21.40;;;;;;5142692;27;19923;-53
2022/03/21 07:30:52;;;;;;;;;;;21.20;21.30;;;;;;5150731;27;19934;-59
2022/03/21 07:33:18;;;;;;;;;;;21.20;21.40;;;;;;5145445;27;19923;-56
2022/03/21 07:35:44;;;;;;;;;;;21.20;21.40;;;;;;5145374;27;19923;-60
2022/03/21 07:38:10;;;;;;;;;;;21.10;21.60;;;;;;5150698;27;19937;-59
2022/03/21 07:40:36;;;;;;;;;;;21.10;21.60;;;;;;5145154;27;19923;-58
2022/03/21 07:43:02;;;;;;;;;;;21.00;21.70;;;;;;5150437;27;19923;-59
2022/03/21 07:48:12;;;;;;;;;;;21.20;21.50;;;;;;5145322;27;19923;-56
2022/03/21 07:50:38;;;;;;;;;;;21.10;21.60;;;;;;5150525;27;19923;-55
2022/03/21 07:53:04;;;;;;;;;;;21.20;21.40;;;;;;5126653;27;20397;-60
2022/03/21 07:55:33;;;;;;;;;;;20.90;21.50;;;;;;5144777;27;20017;-58
2022/03/21 07:57:59;;;;;;;;;;;21.20;21.30;;;;;;5150157;27;19923;-59
2022/03/21 08:00:26;;;;;;;;;;;21.10;21.40;;;;;;5126471;27;20406;-60
2022/03/21 08:02:52;;;;;;;;;;;21.30;21.20;;;;;;5143318;27;20086;-57
2022/03/21 08:05:17;;;;;;;;;;;21.10;21.40;;;;;;5147032;27;19927;-59
2022/03/21 08:07:43;;;;;;;;;;;21.20;21.40;;;;;;5144829;27;19980;-56
2022/03/21 08:10:10;;;;;;;;;;;21.00;21.60;;;;;;5149645;27;19934;-56
2022/03/21 08:12:36;;;;;;;;;;;21.30;21.30;;;;;;5145231;27;20283;-58
2022/03/21 08:15:01;;;;;;;;;;;20.90;21.50;;;;;;5144606;27;19930;-56
2022/03/21 08:17:27;;;;;;;;;;;21.20;21.30;;;;;;5131643;27;19929;-55
2022/03/21 08:19:53;;;;;;;;;;;20.90;21.60;;;;;;5144524;27;20015;-55
2022/03/21 08:22:22;;;;;;;;;;;21.20;21.40;;;;;;5139920;27;19938;-54
2022/03/21 08:24:48;;;;;;;;;;;21.10;21.50;;;;;;5149134;27;19923;-58
2022/03/21 08:27:14;;;;;;;;;;;21.20;21.40;;;;;;5145167;27;20362;-59
2022/03/21 08:29:40;;;;;;;;;;;21.00;21.50;;;;;;5144482;27;19930;-56
2022/03/21 08:32:06;;;;;;;;;;;21.20;21.40;;;;;;5162764;27;19990;-58
2022/03/21 08:34:32;;;;;;;;;;;21.10;21.30;;;;;;5165355;27;19922;-59
2022/03/21 08:36:58;;;;;;;;;;;21.10;21.30;;;;;;5154478;27;20406;-57
2022/03/21 08:39:23;;;;;;;;;;;21.20;21.30;;;;;;5142922;27;20391;-60
2022/03/21 08:41:49;;;;;;;;;;;21.00;21.50;;;;;;5139682;27;19927;-57
2022/03/21 08:44:19;;;;;;;;;;;21.20;21.30;;;;;;5149264;27;19930;-60
2022/03/21 08:46:45;;;;;;;;;;;20.80;21.70;;;;;;5143923;27;19931;-58
2022/03/21 08:49:33;;;;;;;;;;;21.20;21.40;;;;;;5144196;27;20109;-60
2022/03/21 08:52:01;;;;;;;;;;;21.00;21.60;;;;;;5149411;27;20063;-58
2022/03/21 08:54:27;;;;;;;;;;;21.20;21.40;;;;;;5144040;27;19929;-61
2022/03/21 08:56:52;;;;;;;;;;;21.20;21.40;;;;;;5143828;27;20017;-58
2022/03/21 08:59:18;;;;;;;;;;;21.10;21.50;;;;;;5144408;27;19971;-60
2022/03/21 09:01:44;;;;;;;;;;;21.20;21.50;;;;;;5143083;27;19923;-53
2022/03/21 09:04:10;;;;;;;;;;;21.00;21.70;;;;;;5149025;27;19926;-55
2022/03/21 09:06:36;;;;;;;;;;;21.20;21.60;;;;;;5143653;27;20277;-60
2022/03/21 09:09:02;;;;;;;;;;;21.00;21.90;;;;;;5144132;27;19923;-60
2022/03/21 09:11:27;;;;;;;;;;;21.20;21.80;;;;;;5149084;27;20423;-58
2022/03/21 09:13:53;;;;;;;;;;;20.90;22.20;;;;;;5143513;27;19930;-58
2022/03/21 09:16:19;;;;;;;;;;;21.20;21.90;;;;;;5142223;27;20429;-59
2022/03/21 09:18:45;;;;;;;;;;;21.00;22.10;;;;;;5125665;27;19931;-57
2022/03/21 09:21:11;;;;;;;;;;;21.20;21.90;;;;;;5143201;27;19938;-57
2022/03/21 09:23:37;;;;;;;;;;;21.10;22.10;;;;;;5148132;27;19927;-58
2022/03/21 09:26:03;;;;;;;;;;;21.20;21.90;;;;;;5143376;27;19991;-57
2022/03/21 09:28:29;;;;;;;;;;;21.20;22.00;;;;;;5143358;27;20017;-52
2022/03/21 09:30:55;;;;;;;;;;;21.10;22.20;;;;;;5146648;27;19923;-59
2022/03/21 09:33:21;;;;;;;;;;;21.30;22.00;;;;;;5142946;27;19989;-58
2022/03/21 09:35:47;;;;;;;;;;;20.90;22.40;;;;;;5139818;27;20262;-56
2022/03/21 09:38:14;;;;;;;;;;;21.20;22.00;;;;;;5146764;27;19923;-53
2022/03/21 09:40:41;;;;;;;;;;;21.10;22.20;;;;;;5143054;27;19983;-57
2022/03/21 09:43:08;;;;;;;;;;;21.20;22.20;;;;;;5147136;27;19975;-56
2022/03/21 09:45:35;;;;;;;;;;;21.20;22.30;;;;;;5126620;27;20358;-60
2022/03/21 09:48:12;;;;;;;;;;;21.10;22.20;;;;;;5124431;27;19964;-60
2022/03/21 09:50:42;;;;;;;;;;;21.00;22.30;;;;;;5148275;27;19935;-58
2022/03/21 09:53:08;;;;;;;;;;;21.10;22.20;;;;;;5142031;27;19987;-56
2022/03/21 09:55:34;;;;;;;;;;;21.20;22.20;;;;;;5119654;27;19924;-59
2022/03/21 09:58:00;;;;;;;;;;;21.10;22.40;;;;;;5147994;27;19930;-58
2022/03/21 10:00:26;;;;;;;;;;;21.20;22.40;;;;;;5142644;27;20055;-58
2022/03/21 10:02:52;;;;;;;;;;;21.10;22.40;;;;;;5142526;27;19935;-56
2022/03/21 10:05:31;;;;;;;;;;;21.30;22.40;;;;;;5148231;27;19927;-53
2022/03/21 10:08:10;;;;;;;;;;;21.10;22.60;;;;;;5124005;27;19927;-58
2022/03/21 10:10:36;;;;;;;;;;;21.10;22.50;;;;;;5124149;27;20148;-53
2022/03/21 10:13:02;;;;;;;;;;;21.10;22.70;;;;;;5143423;27;19927;-61
2022/03/21 10:15:29;;;;;;;;;;;21.10;22.80;;;;;;5141401;27;19927;-56
2022/03/21 10:18:07;;;;;;;;;;;21.20;22.90;;;;;;5147542;27;19923;-57
2022/03/21 10:20:33;;;;;;;;;;;21.20;23.00;;;;;;5148122;27;19926;-60
2022/03/21 10:23:13;;;;;;;;;;;21.10;23.00;;;;;;5142311;27;20010;-59
2022/03/21 10:25:39;;;;;;;;;;;21.10;22.90;;;;;;5147582;27;20041;-58
2022/03/21 10:28:05;;;;;;;;;;;21.30;22.80;;;;;;5124593;27;19927;-53
2022/03/21 10:30:31;;;;;;;;;;;21.00;22.90;;;;;;5140524;27;19927;-55
2022/03/21 10:32:57;;;;;;;;;;;21.30;22.80;;;;;;5143976;27;19931;-59
2022/03/21 10:35:26;;;;;;;;;;;21.10;22.90;;;;;;5143697;27;19927;-57
2022/03/21 10:37:52;;;;;;;;;;;21.30;22.70;;;;;;5146618;27;19927;-60
2022/03/21 10:40:22;;;;;;;;;;;21.10;23.00;;;;;;5151065;27;19927;-50
2022/03/21 10:42:52;;;;;;;;;;;21.10;22.90;;;;;;5147104;27;19972;-59
2022/03/21 10:45:18;;;;;;;;;;;21.20;22.70;;;;;;5128093;27;19927;-56
2022/03/21 10:47:48;;;;;;;;;;;21.20;22.70;;;;;;5151675;27;20505;-60
2022/03/21 10:50:14;;;;;;;;;;;21.20;22.80;;;;;;5141059;27;20340;-56
2022/03/21 10:52:39;;;;;;;;;;;21.20;23.00;;;;;;5151030;27;19927;-61
2022/03/21 10:55:05;;;;;;;;;;;21.20;23.00;;;;;;5146354;27;20388;-58
2022/03/21 10:57:36;;;;;;;;;;;21.10;23.00;;;;;;5146261;27;19934;-60
2022/03/21 11:00:21;;;;;;;;;;;21.30;22.80;;;;;;5151459;27;19950;-58
2022/03/21 11:02:47;;;;;;;;;;;21.20;22.80;;;;;;5146137;27;20386;-60
2022/03/21 11:05:13;;;;;;;;;;;21.30;22.70;;;;;;5145976;27;20367;-59
2022/03/21 11:07:39;;;;;;;;;;;21.10;22.80;;;;;;5130205;27;19946;-58
2022/03/21 11:10:05;;;;;;;;;;;21.30;22.50;;;;;;5124801;27;19923;-55
2022/03/21 11:12:31;;;;;;;;;;;21.00;22.80;;;;;;5145669;27;19933;-59
2022/03/21 11:14:57;;;;;;;;;;;21.30;22.60;;;;;;5132858;27;19923;-59
2022/03/21 11:17:23;;;;;;;;;;;21.10;22.80;;;;;;5127423;27;19923;-58
2022/03/21 11:19:48;;;;;;;;;;;21.30;22.60;;;;;;5132614;27;19927;-58
2022/03/21 11:22:14;;;;;;;;;;;21.00;22.90;;;;;;5145682;27;19935;-60
2022/03/21 11:24:40;;;;;;;;;;;21.30;22.70;;;;;;5145956;27;19926;-52
2022/03/21 11:27:27;;;;;;;;;;;21.00;22.90;;;;;;5144431;27;19923;-56
2022/03/21 11:30:07;;;;;;;;;;;21.30;22.60;;;;;;5126539;27;19929;-57
2022/03/21 11:32:48;;;;;;;;;;;21.10;22.90;;;;;;5145451;27;20387;-56
2022/03/21 11:35:14;;;;;;;;;;;21.30;22.70;;;;;;5150752;27;19927;-58
2022/03/21 11:37:40;;;;;;;;;;;21.00;23.00;;;;;;5145614;27;20010;-60
2022/03/21 11:40:26;;;;;;;;;;;21.20;22.90;;;;;;5126967;27;19923;-56
2022/03/21 11:42:52;;;;;;;;;;;21.20;23.00;;;;;;5150690;27;19923;-60
2022/03/21 11:45:25;;;;;;;;;;;21.30;22.80;;;;;;5140484;27;20417;-60
2022/03/21 11:48:11;;;;;;;;;;;21.20;22.90;;;;;;5143921;27;19927;-59
2022/03/21 11:50:36;;;;;;;;;;;21.20;23.00;;;;;;5139433;27;19987;-56
2022/03/21 11:53:08;;;;;;;;;;;21.10;23.00;;;;;;5145319;27;19923;-55
2022/03/21 11:55:44;;;;;;;;;;;21.10;23.20;;;;;;5145282;27;19937;-61
2022/03/21 11:58:21;;;;;;;;;;;21.20;23.30;;;;;;5148457;27;19927;-55
2022/03/21 12:01:06;;;;;;;;;;;21.10;23.30;;;;;;5145223;27;19939;-60
2022/03/21 12:03:32;;;;;;;;;;;21.20;23.10;;;;;;5140974;27;20355;-57
2022/03/21 12:05:58;;;;;;;;;;;21.20;22.90;;;;;;5130334;27;19923;-60
2022/03/21 12:08:30;;;;;;;;;;;21.20;22.80;;;;;;5144930;27;19927;-58
2022/03/21 12:10:56;;;;;;;;;;;21.20;22.80;;;;;;5145092;27;19927;-60
2022/03/21 12:13:22;;;;;;;;;;;21.20;22.60;;;;;;5150227;27;19930;-57
2022/03/21 12:15:51;;;;;;;;;;;21.10;22.60;;;;;;5144646;27;20389;-60
2022/03/21 12:18:17;;;;;;;;;;;21.30;22.50;;;;;;5144557;27;20424;-59
2022/03/21 12:20:46;;;;;;;;;;;21.20;22.50;;;;;;5130546;27;19923;-59
2022/03/21 12:23:16;;;;;;;;;;;21.20;22.70;;;;;;5137801;27;19923;-60
2022/03/21 12:25:42;;;;;;;;;;;21.10;22.80;;;;;;5149157;27;20319;-56
2022/03/21 12:31:27;;;;;;;;;;;21.30;22.80;;;;;;5144468;27;19971;-58
2022/03/21 12:33:55;;;;;;;;;;;21.10;22.60;;;;;;5125773;27;20414;-61
2022/03/21 12:36:30;;;;;;;;;;;21.20;22.70;;;;;;5131232;27;19923;-56
2022/03/21 12:38:56;;;;;;;;;;;21.00;22.90;;;;;;5143723;27;20022;-61
2022/03/21 12:41:22;;;;;;;;;;;21.20;22.60;;;;;;5139517;27;19934;-56
2022/03/21 12:43:50;;;;;;;;;;;21.20;22.50;;;;;;5149419;27;19927;-60
2022/03/21 12:46:18;;;;;;;;;;;21.30;22.30;;;;;;5144080;27;19933;-59
2022/03/21 12:49:03;;;;;;;;;;;21.30;22.60;;;;;;5149742;27;20050;-61
2022/03/21 12:51:30;;;;;;;;;;;21.10;22.60;;;;;;5148384;27;19933;-57
2022/03/21 12:53:56;;;;;;;;;;;21.30;22.40;;;;;;5143642;27;19923;-60
2022/03/21 12:56:23;;;;;;;;;;;21.10;22.30;;;;;;5130814;27;20064;-58
2022/03/21 12:58:49;;;;;;;;;;;21.20;22.40;;;;;;5138555;27;20116;-58
2022/03/21 13:01:15;;;;;;;;;;;21.20;22.20;;;;;;5142313;27;19923;-60
2022/03/21 13:03:41;;;;;;;;;;;21.10;22.20;;;;;;5149129;27;19931;-57
2022/03/21 13:11:36;;;;;;;;;;;21.30;22.00;;;;;;5149129;27;20308;-61
2022/03/21 13:14:03;;;;;;;;;;;21.20;21.90;;;;;;5141633;27;20434;-61
2022/03/21 13:16:29;;;;;;;;;;;21.20;21.90;;;;;;5141622;27;20131;-58
2022/03/21 13:18:58;;;;;;;;;;;21.10;22.00;;;;;;5144987;27;19929;-60
2022/03/21 13:21:24;;;;;;;;;;;21.20;21.90;;;;;;5143173;27;20026;-60
2022/03/21 13:23:50;;;;;;;;;;;21.10;21.50;;;;;;5146102;27;20370;-57
2022/03/21 13:26:17;;;;;;;;;;;21.20;21.40;;;;;;5146738;27;19923;-59
2022/03/21 13:28:43;;;;;;;;;;;21.30;21.40;;;;;;5124481;27;19931;-60
2022/03/21 13:31:11;;;;;;;;;;;21.20;21.60;;;;;;5148509;27;19927;-60
2022/03/21 13:33:38;;;;;;;;;;;21.20;21.70;;;;;;5142630;27;20236;-59
2022/03/21 13:36:04;;;;;;;;;;;21.20;21.80;;;;;;5119448;27;19949;-60
2022/03/21 13:38:30;;;;;;;;;;;21.30;21.80;;;;;;5147516;27;20419;-60
2022/03/21 13:40:56;;;;;;;;;;;21.30;22.00;;;;;;5142895;27;19960;-60
2022/03/21 13:43:23;;;;;;;;;;;21.30;22.10;;;;;;5142922;27;19958;-61
2022/03/21 13:45:48;;;;;;;;;;;21.30;21.80;;;;;;5148202;27;19923;-61
2022/03/21 13:48:30;;;;;;;;;;;21.20;21.80;;;;;;5142799;27;22074;-56
2022/03/21 13:51:15;;;;;;;;;;;21.30;22.00;;;;;;5145238;27;20598;-57
2022/03/21 13:53:41;;;;;;;;;;;21.30;22.20;;;;;;5144891;27;19927;-58
2022/03/21 13:56:06;;;;;;;;;;;21.30;22.10;;;;;;5139760;27;19927;-61
2022/03/21 13:58:34;;;;;;;;;;;21.30;22.00;;;;;;5148103;27;19934;-58
2022/03/21 14:01:00;;;;;;;;;;;21.20;22.30;;;;;;5125090;27;19941;-59
2022/03/21 14:03:46;;;;;;;;;;;21.30;22.10;;;;;;5142598;27;19923;-58
2022/03/21 14:06:12;;;;;;;;;;;21.30;22.10;;;;;;5147984;27;19923;-56
2022/03/21 14:08:37;;;;;;;;;;;21.30;22.10;;;;;;5142394;27;19953;-58
2022/03/21 14:11:04;;;;;;;;;;;21.30;22.10;;;;;;5122820;27;19976;-59
2022/03/21 14:13:32;;;;;;;;;;;21.30;22.00;;;;;;5142223;27;19923;-60
2022/03/21 14:15:58;;;;;;;;;;;21.30;22.00;;;;;;5142215;27;20006;-59
2022/03/21 14:18:24;;;;;;;;;;;21.40;22.10;;;;;;5142316;27;20276;-56
2022/03/21 14:20:50;;;;;;;;;;;21.30;22.40;;;;;;5148064;27;20006;-59
2022/03/21 14:23:16;;;;;;;;;;;21.40;22.40;;;;;;5142229;27;19927;-60
2022/03/21 14:28:26;;;;;;;;;;;21.40;22.90;;;;;;5147599;27;19940;-57
2022/03/21 14:30:52;;;;;;;;;;;21.50;22.90;;;;;;5138347;27;19935;-58
2022/03/21 14:33:17;;;;;;;;;;;21.30;22.90;;;;;;5145353;27;19937;-61
2022/03/21 14:35:43;;;;;;;;;;;21.40;23.00;;;;;;5142084;27;19940;-58
2022/03/21 14:38:09;;;;;;;;;;;21.50;23.00;;;;;;5140020;27;19930;-60
2022/03/21 14:40:35;;;;;;;;;;;21.50;23.00;;;;;;5147374;27;20382;-58
2022/03/21 14:43:01;;;;;;;;;;;21.40;23.30;;;;;;5141763;27;19967;-59
2022/03/21 14:45:27;;;;;;;;;;;21.30;23.70;;;;;;5142056;27;20149;-58
2022/03/21 14:47:52;;;;;;;;;;;21.30;23.70;;;;;;5147008;27;20328;-58